Terminal Aerodrome Forecast
Issued by NWS

Home | Current Version | Previous Version | Graphics & Text | Print | Product List | Glossary On
Versions: 1 2 3 4 5 6 7 8 9 10 11 12 13 14 15 16 17 18 19 20 21 22
000
FTUS43 KBIS 201700
TAFJMS
TAF
KJMS 201724Z 2018/2118 30015G25KT P6SM VCTS BKN070CB
      TEMPO 2018/2019 VRB15G25KT 4SM -TSRA BKN050CB
     FM202100 32020G30KT P6SM SCT080
     FM210100 32010KT P6SM SKC=

USA.gov is the U.S. government's official web portal to all federal, state and local government web resources and services.